Time;durP1;ratioP1;P1;durP2;ratioP2;P2;SDS_P1;SDS_P2;PMS_P1;PMS_P2;Temp;Humidity;BMP_temperature;BMP_pressure;BME280_temperature;BME280_humidity;BME280_pressure;Samples;Min_cycle;Max_cycle;Signal;HPM_P1;HPM_P2
2021/03/30 00:00:55;;;;;;;3.42;1.75;;;;;;;;;;5050491;28;20377;-78
2021/03/30 00:03:21;;;;;;;2.00;1.73;;;;;;;;;;5050568;28;20409;-72
2021/03/30 00:05:48;;;;;;;1.73;1.58;;;;;;;;;;5050877;28;20381;-73
2021/03/30 00:08:14;;;;;;;2.53;1.85;;;;;;;;;;5049879;28;20386;-73
2021/03/30 00:10:42;;;;;;;2.10;1.80;;;;;;;;;;5051017;28;20451;-73
2021/03/30 00:13:08;;;;;;;1.50;1.40;;;;;;;;;;5049865;28;20472;-74
2021/03/30 00:15:34;;;;;;;2.53;2.15;;;;;;;;;;5050678;28;20382;-73
2021/03/30 00:18:00;;;;;;;1.80;1.60;;;;;;;;;;5038651;28;20390;-75
2021/03/30 00:20:26;;;;;;;1.58;1.42;;;;;;;;;;5034162;28;20533;-73
2021/03/30 00:22:52;;;;;;;2.58;2.05;;;;;;;;;;5031316;28;20405;-76
2021/03/30 00:25:18;;;;;;;2.42;1.55;;;;;;;;;;5029324;28;20436;-74
2021/03/30 00:27:45;;;;;;;1.92;1.63;;;;;;;;;;5028877;28;20457;-73
2021/03/30 00:30:12;;;;;;;2.72;1.65;;;;;;;;;;5027891;28;20390;-72
2021/03/30 00:32:38;;;;;;;1.88;1.50;;;;;;;;;;5031808;28;20393;-73
2021/03/30 00:35:05;;;;;;;4.07;2.00;;;;;;;;;;5030264;28;21164;-72
2021/03/30 00:37:31;;;;;;;2.30;1.80;;;;;;;;;;5027132;28;20435;-73
2021/03/30 00:39:57;;;;;;;2.30;1.30;;;;;;;;;;5031053;28;20491;-76
2021/03/30 00:42:24;;;;;;;1.70;1.60;;;;;;;;;;5029484;28;20411;-73
2021/03/30 00:44:50;;;;;;;2.30;1.80;;;;;;;;;;5028859;28;21232;-72
2021/03/30 00:47:18;;;;;;;1.80;1.70;;;;;;;;;;5028226;28;20369;-76
2021/03/30 00:49:44;;;;;;;2.97;1.65;;;;;;;;;;5030698;28;20394;-72
2021/03/30 00:52:10;;;;;;;2.38;1.48;;;;;;;;;;5011018;28;20397;-76
2021/03/30 00:54:37;;;;;;;2.67;1.70;;;;;;;;;;5028001;28;20465;-75
2021/03/30 00:57:04;;;;;;;3.63;2.00;;;;;;;;;;5031526;28;20378;-72
2021/03/30 00:59:30;;;;;;;3.10;1.80;;;;;;;;;;5027744;28;20375;-72
2021/03/30 01:01:56;;;;;;;1.70;1.55;;;;;;;;;;5029359;28;20751;-77
2021/03/30 01:04:22;;;;;;;2.00;1.50;;;;;;;;;;5029459;28;20411;-72
2021/03/30 01:06:48;;;;;;;1.97;1.80;;;;;;;;;;5028436;28;20471;-73
2021/03/30 01:09:35;;;;;;;1.50;1.40;;;9.00;93.10;;;;;;5009094;28;20762;-73
2021/03/30 01:12:05;;;;;;;2.30;1.60;;;;;;;;;;5012191;28;20389;-76
2021/03/30 01:14:46;;;;;;;3.17;1.83;;;;;;;;;;5028949;28;20392;-72
2021/03/30 01:17:21;;;;;;;2.17;1.40;;;;;;;;;;5025624;28;20417;-75
2021/03/30 01:20:05;;;;;;;2.83;1.70;;;;;;;;;;5028722;28;20388;-72
2021/03/30 01:22:50;;;;;;;3.00;1.70;;;;;;;;;;5032675;28;20532;-75
2021/03/30 01:25:16;;;;;;;2.10;1.55;;;;;;;;;;5029396;28;20379;-72
2021/03/30 01:27:53;;;;;;;1.70;1.60;;;;;;;;;;5027771;28;20748;-72
2021/03/30 01:30:21;;;;;;;1.80;1.40;;;;;;;;;;5028524;28;20536;-73
2021/03/30 01:32:49;;;;;;;3.00;1.50;;;;;;;;;;5031345;28;20415;-75
2021/03/30 01:35:19;;;;;;;2.88;1.70;;;;;;;;;;5033707;28;20460;-73
2021/03/30 01:37:46;;;;;;;3.60;1.90;;;;;;;;;;5027885;28;20553;-74
2021/03/30 01:40:19;;;;;;;1.73;1.50;;;;;;;;;;5029572;28;20484;-72
2021/03/30 01:42:47;;;;;;;2.10;1.55;;;;;;;;;;5037871;28;20411;-74
2021/03/30 01:45:15;;;;;;;1.67;1.52;;;;;;;;;;5034326;28;20447;-74
2021/03/30 01:47:42;;;;;;;1.77;1.55;;;;;;;;;;5032532;28;20719;-74
2021/03/30 01:50:10;;;;;;;1.90;1.70;;;;;;;;;;5034121;28;20410;-75
2021/03/30 01:52:37;;;;;;;3.40;1.60;;;;;;;;;;5034024;28;20386;-72
2021/03/30 01:55:03;;;;;;;2.50;1.60;;;;;;;;;;5032406;28;20385;-76
2021/03/30 01:57:31;;;;;;;1.90;1.77;;;;;;;;;;5032877;28;20458;-72
2021/03/30 01:59:58;;;;;;;1.57;1.47;;;;;;;;;;5034099;28;20850;-72
2021/03/30 02:02:24;;;;;;;2.70;1.65;;;;;;;;;;5032196;28;20477;-72
2021/03/30 02:04:51;;;;;;;2.03;1.40;;;;;;;;;;5033942;28;20392;-74
2021/03/30 02:07:17;;;;;;;2.20;1.40;;;;;;;;;;5046979;28;20377;-73
2021/03/30 02:09:47;;;;;;;1.63;1.52;;;;;;;;;;5052292;28;20400;-72
2021/03/30 02:12:15;;;;;;;3.10;1.98;;;;;;;;;;5051590;28;20464;-73
2021/03/30 02:14:41;;;;;;;1.90;1.70;;;;;;;;;;5051504;28;20736;-73
2021/03/30 02:17:23;;;;;;;2.95;1.90;;;;;;;;;;5050584;28;20438;-72
2021/03/30 02:19:50;;;;;;;2.05;1.77;;;;;;;;;;5051139;28;20461;-73
2021/03/30 02:22:43;;;;;;;2.55;1.50;;;;;;;;;;5050428;28;20881;-73
2021/03/30 02:25:09;;;;;;;3.13;1.60;;;;;;;;;;5046830;28;20472;-72
2021/03/30 02:27:38;;;;;;;1.60;1.50;;;;;;;;;;5051321;28;20489;-73
2021/03/30 02:30:04;;;;;;;2.50;1.80;;;;;;;;;;5050458;28;20474;-77
2021/03/30 02:32:31;;;;;;;1.90;1.60;;;;;;;;;;5051125;28;20428;-73
2021/03/30 02:34:58;;;;;;;2.20;1.70;;;;;;;;;;5051459;28;20369;-72
2021/03/30 02:37:24;;;;;;;3.20;1.67;;;;;;;;;;5050364;28;21049;-74
2021/03/30 02:39:51;;;;;;;2.00;1.40;;;;;;;;;;5051088;28;20472;-72
2021/03/30 02:42:19;;;;;;;2.40;1.90;;;;;;;;;;5032999;28;20443;-72
2021/03/30 02:44:46;;;;;;;3.67;1.53;;;;;;;;;;5051356;28;20374;-72
2021/03/30 02:47:14;;;;;;;1.65;1.50;;;;;;;;;;5050420;28;20453;-72
2021/03/30 02:49:40;;;;;;;2.35;1.52;;;;;;;;;;5051349;28;20370;-72
2021/03/30 02:52:07;;;;;;;1.80;1.70;;;;;;;;;;5043924;28;20406;-75
2021/03/30 02:54:33;;;;;;;1.70;1.40;;;;;;;;;;5013698;28;20391;-72
2021/03/30 02:57:00;;;;;;;2.10;1.50;;;;;;;;;;5031964;28;20371;-72
2021/03/30 02:59:28;;;;;;;2.15;1.80;;;;;;;;;;5030793;28;20386;-71
2021/03/30 03:01:54;;;;;;;1.90;1.38;;;;;;;;;;5031386;28;20403;-71
2021/03/30 03:04:20;;;;;;;6.40;1.77;;;;;;;;;;5030746;28;20382;-72
2021/03/30 03:06:46;;;;;;;1.95;1.73;;;;;;;;;;5031423;28;20375;-72
2021/03/30 03:09:13;;;;;;;1.73;1.10;;;;;;;;;;5012740;28;20433;-72
2021/03/30 03:11:43;;;;;;;2.78;1.90;;;;;;;;;;5031230;28;20385;-72
2021/03/30 03:14:10;;;;;;;1.70;1.60;;;;;;;;;;5030160;28;20402;-72
2021/03/30 03:16:36;;;;;;;2.47;2.00;;;;;;;;;;5031302;28;20760;-71
2021/03/30 03:19:05;;;;;;;5.05;1.90;;;;;;;;;;5031189;28;20374;-72
2021/03/30 03:21:31;;;;;;;2.47;1.73;;;;;;;;;;5030462;28;20398;-71
2021/03/30 03:23:57;;;;;;;2.53;1.67;;;;;;;;;;5031656;28;20371;-71
2021/03/30 03:26:23;;;;;;;2.45;1.90;;;;;;;;;;5030378;28;20441;-71
2021/03/30 03:28:49;;;;;;;1.90;1.70;;;;;;;;;;5031101;28;20371;-72
2021/03/30 03:31:15;;;;;;;3.90;2.20;;;;;;;;;;5030085;28;20384;-72
2021/03/30 03:33:42;;;;;;;3.20;2.88;;;;;;;;;;5030832;28;20367;-71
2021/03/30 03:36:10;;;;;;;3.20;2.40;;;;;;;;;;5030221;28;20371;-75
2021/03/30 03:38:37;;;;;;;7.75;3.25;;;;;;;;;;5031060;28;20379;-71
2021/03/30 03:41:04;;;;;;;3.80;2.23;;;;;;;;;;5030926;28;20407;-71
2021/03/30 03:43:30;;;;;;;2.80;2.20;;;;;;;;;;5029568;28;20518;-72
2021/03/30 03:45:56;;;;;;;1.70;1.60;;;;;;;;;;5030699;28;20404;-72
2021/03/30 03:48:22;;;;;;;2.08;1.70;;;;;;;;;;5030160;28;20844;-72
2021/03/30 03:50:48;;;;;;;2.20;1.80;;;;;;;;;;5030065;28;20383;-72
2021/03/30 03:53:15;;;;;;;2.60;1.90;;;;;;;;;;5044982;28;20496;-72
2021/03/30 03:55:44;;;;;;;4.15;2.33;;;;;;;;;;5032482;28;20876;-72
2021/03/30 03:58:12;;;;;;;2.47;2.00;;;;;;;;;;5049337;28;20460;-76
2021/03/30 04:00:40;;;;;;;2.10;1.60;;;;;;;;;;5032374;28;20894;-72
2021/03/30 04:03:09;;;;;;;1.65;1.55;;;;;;;;;;5033128;28;20489;-74
2021/03/30 04:05:55;;;;;;;3.30;1.73;;;;;;;;;;5050064;28;20432;-72
2021/03/30 04:08:23;;;;;;;1.80;1.40;;;;;;;;;;5049943;28;20768;-72
2021/03/30 04:10:49;;;;;;;2.55;2.00;;;;;;;;;;5050532;28;20828;-72
2021/03/30 04:13:17;;;;;;;2.20;1.40;;;;;;;;;;5049827;28;20464;-72
2021/03/30 04:15:44;;;;;;;3.72;1.40;;;;;;;;;;5050820;28;20769;-73
2021/03/30 04:18:10;;;;;;;2.10;1.80;;;;;;;;;;5050370;28;20401;-77
2021/03/30 04:20:36;;;;;;;2.37;1.50;;;;;;;;;;5050419;28;20370;-72
2021/03/30 04:23:02;;;;;;;1.63;1.40;;;;;;;;;;5050405;28;20808;-72
2021/03/30 04:25:28;;;;;;;2.10;1.70;;;;;;;;;;5050105;28;20583;-72
2021/03/30 04:27:55;;;;;;;2.90;1.90;;;;;;;;;;5050502;28;20737;-72
2021/03/30 04:30:21;;;;;;;2.63;1.90;;;;;;;;;;5049724;28;20444;-72
2021/03/30 04:32:47;;;;;;;2.85;1.60;;;;;;;;;;5050682;28;20381;-71
2021/03/30 04:35:14;;;;;;;2.40;2.20;;;;;;;;;;5049191;28;20388;-73
2021/03/30 04:37:40;;;;;;;1.92;1.63;;;;;;;;;;5050110;28;20903;-72
2021/03/30 04:40:06;;;;;;;2.90;2.30;;;;;;;;;;5049764;28;20458;-72
2021/03/30 04:42:32;;;;;;;2.22;2.00;;;;;;;;;;5049674;28;20409;-71
2021/03/30 04:44:58;;;;;;;2.42;2.22;;;;;;;;;;5050112;28;20373;-73
2021/03/30 04:47:24;;;;;;;2.47;1.77;;;;;;;;;;5049511;28;20374;-72
2021/03/30 04:49:51;;;;;;;1.70;1.60;;;;;;;;;;5049775;28;20429;-72
2021/03/30 04:52:17;;;;;;;2.30;2.10;;;;;;;;;;5041842;28;20383;-72
2021/03/30 04:54:43;;;;;;;3.72;1.80;;;;;;;;;;5030308;28;20894;-72
2021/03/30 04:57:09;;;;;;;4.00;1.90;;;;;;;;;;5030495;28;20387;-71
2021/03/30 04:59:35;;;;;;;2.00;1.70;;;;;;;;;;5029889;28;20413;-72
2021/03/30 05:02:01;;;;;;;2.67;1.95;;;;;;;;;;5029972;28;20399;-71
2021/03/30 05:04:27;;;;;;;2.30;2.03;;;;;;;;;;5029308;28;20420;-71
2021/03/30 05:06:53;;;;;;;4.30;2.10;;;;;;;;;;5030466;28;20462;-72
2021/03/30 05:09:20;;;;;;;4.60;2.50;;;;;;;;;;5029412;28;20395;-72
2021/03/30 05:11:46;;;;;;;3.30;2.00;;;;;;;;;;5029924;28;20739;-72
2021/03/30 05:14:12;;;;;;;2.50;2.20;;;;;;;;;;5029668;28;20454;-77
2021/03/30 05:16:38;;;;;;;3.13;2.00;;;;;;;;;;5032292;28;20843;-72
2021/03/30 05:19:03;;;;;;;2.28;1.92;;;7.50;99.90;;;;;;5034080;28;20425;-73
2021/03/30 05:21:29;;;;;;;2.40;1.57;;;7.40;99.90;;;;;;5032911;28;20436;-73
2021/03/30 05:23:55;;;;;;;2.00;1.80;;;;;;;;;;5034027;28;20398;-72
2021/03/30 05:26:22;;;;;;;3.10;2.05;;;;;;;;;;5032880;28;20383;-72
2021/03/30 05:28:48;;;;;;;4.40;1.85;;;;;;;;;;5033645;28;20379;-71
2021/03/30 05:31:14;;;;;;;3.00;1.90;;;;;;;;;;5015477;28;20379;-76
2021/03/30 05:33:39;;;;;;;2.50;1.80;;;7.10;99.90;;;;;;5033143;28;20414;-72
2021/03/30 05:36:06;;;;;;;2.60;1.90;;;;;;;;;;5015841;28;20390;-71
2021/03/30 05:38:32;;;;;;;1.92;1.70;;;;;;;;;;5032670;28;20383;-72
2021/03/30 05:40:58;;;;;;;2.60;1.60;;;;;;;;;;5033694;28;20442;-72
2021/03/30 05:43:24;;;;;;;3.25;2.20;;;;;;;;;;5031757;28;20434;-72
2021/03/30 05:45:50;;;;;;;4.43;2.45;;;;;;;;;;5032664;28;20380;-72
2021/03/30 05:48:17;;;;;;;3.42;1.90;;;;;;;;;;5032644;28;20856;-77
2021/03/30 05:50:44;;;;;;;2.30;2.10;;;;;;;;;;5032770;28;20462;-73
2021/03/30 05:53:11;;;;;;;2.42;2.20;;;;;;;;;;5047411;28;20393;-74
2021/03/30 05:55:40;;;;;;;3.90;2.50;;;;;;;;;;5052532;28;20401;-75
2021/03/30 05:58:08;;;;;;;2.35;1.85;;;;;;;;;;5053031;28;20690;-74
2021/03/30 06:00:36;;;;;;;2.22;2.03;;;7.30;99.90;;;;;;5052631;28;20643;-74
2021/03/30 06:03:07;;;;;;;2.80;2.03;;;;;;;;;;5053077;28;20579;-73
2021/03/30 06:05:33;;;;;;;2.75;2.30;;;;;;;;;;5051434;28;20806;-73
2021/03/30 06:08:00;;;;;;;6.07;2.50;;;;;;;;;;5052063;28;20740;-73
2021/03/30 06:10:27;;;;;;;2.40;2.20;;;;;;;;;;5051535;28;20492;-74
2021/03/30 06:12:54;;;;;;;5.78;2.50;;;;;;;;;;5053068;28;20378;-74
2021/03/30 06:15:20;;;;;;;2.63;2.17;;;;;;;;;;5052338;28;20377;-74
2021/03/30 06:17:50;;;;;;;3.90;2.07;;;;;;;;;;5034982;28;20378;-74
2021/03/30 06:20:30;;;;;;;3.65;2.33;;;8.20;99.90;;;;;;5051434;28;20388;-76
2021/03/30 06:22:58;;;;;;;4.95;2.20;;;;;;;;;;5052483;28;20401;-74
2021/03/30 06:25:37;;;;;;;3.03;2.40;;;;;;;;;;5052070;28;20413;-73
2021/03/30 06:28:10;;;;;;;2.00;1.90;;;;;;;;;;5051543;28;20377;-74
2021/03/30 06:30:36;;;;;;;2.58;2.20;;;;;;;;;;5051744;28;20431;-74
2021/03/30 06:33:03;;;;;;;4.00;2.50;;;;;;;;;;5052272;28;20370;-73
2021/03/30 06:35:30;;;;;;;3.15;2.13;;;8.30;99.90;;;;;;5051890;28;20402;-73
2021/03/30 06:37:56;;;;;;;2.50;2.13;;;;;;;;;;5052411;28;20370;-73
2021/03/30 06:40:35;;;;;;;4.72;2.60;;;;;;;;;;5051585;28;20405;-74
2021/03/30 06:44:24;;;;;;;2.92;2.30;;;;;;;;;;5052300;28;20401;-73
2021/03/30 06:46:03;;;;;;;3.60;2.40;;;9.20;99.90;;;;;;5051844;28;20485;-74
2021/03/30 06:48:29;;;;;;;2.28;1.92;;;8.70;99.90;;;;;;5051533;28;20373;-74
2021/03/30 06:50:55;;;;;;;3.20;2.30;;;8.80;99.90;;;;;;5051976;28;20434;-73
2021/03/30 06:53:21;;;;;;;3.70;2.30;;;;;;;;;;5051060;28;20804;-76
2021/03/30 06:55:52;;;;;;;3.63;2.70;;;9.40;99.90;;;;;;5034218;28;20425;-74
2021/03/30 06:58:18;;;;;;;3.92;2.20;;;;;;;;;;5051526;28;20412;-77
2021/03/30 07:00:45;;;;;;;3.00;2.42;;;8.30;99.90;;;;;;5051139;28;20428;-74
2021/03/30 07:03:13;;;;;;;3.00;2.25;;;;;;;;;;5051886;28;20406;-73
2021/03/30 07:05:40;;;;;;;2.47;2.28;;;;;;;;;;5051068;28;20457;-75
2021/03/30 07:08:09;;;;;;;2.92;2.15;;;9.30;99.90;;;;;;5034065;28;20865;-73
2021/03/30 07:10:36;;;;;;;3.28;2.30;;;;;;;;;;5050737;28;20450;-73
2021/03/30 07:13:03;;;;;;;2.33;2.13;;;;;;;;;;5033764;28;20393;-74
2021/03/30 07:15:29;;;;;;;2.73;2.20;;;;;;;;;;5051052;28;20454;-76
2021/03/30 07:18:04;;;;;;;2.50;2.10;;;10.30;99.90;;;;;;5033582;28;20381;-73
2021/03/30 07:20:33;;;;;;;2.75;2.10;;;9.90;99.90;;;;;;5033131;28;20396;-74
2021/03/30 07:23:06;;;;;;;3.20;2.30;;;10.40;99.90;;;;;;5051618;28;20401;-73
2021/03/30 07:25:35;;;;;;;3.38;2.38;;;10.30;99.90;;;;;;5051355;28;20726;-74
2021/03/30 07:28:05;;;;;;;3.38;2.38;;;10.30;99.90;;;;;;5051092;28;20377;-74
2021/03/30 07:30:31;;;;;;;2.38;1.80;;;;;;;;;;5050522;28;20481;-73
2021/03/30 07:33:30;;;;;;;3.72;2.20;;;11.00;99.90;;;;;;5051351;28;20384;-74
2021/03/30 07:35:57;;;;;;;2.45;2.10;;;11.10;99.90;;;;;;5051414;28;20382;-73
2021/03/30 07:38:30;;;;;;;4.13;2.10;;;;;;;;;;5050823;28;20377;-76
2021/03/30 07:40:56;;;;;;;3.07;2.00;;;;;;;;;;5048443;28;20485;-74
2021/03/30 07:43:29;;;;;;;2.70;2.00;;;;;;;;;;5051010;28;20761;-78
2021/03/30 07:45:59;;;;;;;2.83;2.30;;;11.20;99.90;;;;;;5052099;28;20401;-73
2021/03/30 07:48:28;;;;;;;2.22;1.70;;;11.60;98.70;;;;;;5032670;28;20408;-74
2021/03/30 07:51:02;;;;;;;2.42;1.75;;;11.70;98.50;;;;;;5051585;28;20385;-75
2021/03/30 07:53:40;;;;;;;4.65;2.10;;;;;;;;;;5016018;28;20482;-75
2021/03/30 07:56:09;;;;;;;2.88;2.20;;;12.20;98.10;;;;;;5031319;28;20952;-75
2021/03/30 07:58:36;;;;;;;3.10;2.30;;;;;;;;;;5030201;28;20391;-75
2021/03/30 08:01:03;;;;;;;1.80;1.60;;;;;;;;;;5034090;28;21902;-75
2021/03/30 08:03:31;;;;;;;2.60;1.90;;;;;;;;;;5040798;28;20497;-74
2021/03/30 08:06:07;;;;;;;2.80;1.88;;;12.90;91.90;;;;;;5039847;28;20381;-75
2021/03/30 08:08:45;;;;;;;3.05;1.90;;;;;;;;;;5035871;28;20739;-74
2021/03/30 08:11:11;;;;;;;3.42;2.13;;;;;;;;;;5031360;28;20375;-74
2021/03/30 08:13:48;;;;;;;2.30;2.00;;;12.90;96.00;;;;;;5030440;28;20445;-74
2021/03/30 08:16:16;;;;;;;3.35;2.10;;;;;;;;;;5031360;28;20391;-73
2021/03/30 08:18:44;;;;;;;2.90;2.28;;;13.70;91.70;;;;;;5030628;28;21063;-74
2021/03/30 08:21:14;;;;;;;3.95;2.00;;;;;;;;;;5031048;28;20391;-74
2021/03/30 08:23:53;;;;;;;6.00;2.90;;;;;;;;;;5012534;28;20414;-74
2021/03/30 08:26:27;;;;;;;4.60;2.90;;;14.10;84.80;;;;;;5031135;28;20717;-74
2021/03/30 08:29:11;;;;;;;4.20;2.72;;;13.90;93.00;;;;;;5030812;28;20391;-73
2021/03/30 08:31:53;;;;;;;5.55;3.30;;;;;;;;;;5030128;28;20391;-74
2021/03/30 08:34:26;;;;;;;4.35;3.00;;;;;;;;;;5030867;28;20414;-74
2021/03/30 08:36:56;;;;;;;3.63;2.60;;;;;;;;;;5030908;28;20410;-74
2021/03/30 08:39:21;;;;;;;3.25;2.60;;;13.80;91.90;;;;;;5030726;28;20408;-74
2021/03/30 08:41:47;;;;;;;3.50;2.60;;;14.20;93.20;;;;;;5030363;28;20419;-74
2021/03/30 08:44:13;;;;;;;3.75;2.30;;;;;;;;;;5013189;28;20880;-73
2021/03/30 08:46:40;;;;;;;3.10;2.75;;;;;;;;;;5012428;28;20394;-74
2021/03/30 08:49:27;;;;;;;3.45;2.75;;;14.40;88.10;;;;;;5030764;28;20458;-74
2021/03/30 08:51:57;;;;;;;2.90;2.60;;;14.80;89.80;;;;;;5033619;28;20451;-74
2021/03/30 08:54:31;;;;;;;6.50;3.27;;;15.00;92.00;;;;;;5051005;28;20823;-75
2021/03/30 08:57:01;;;;;;;3.50;2.70;;;14.60;82.40;;;;;;5050860;28;20378;-74
2021/03/30 08:59:28;;;;;;;4.28;2.97;;;;;;;;;;5049773;28;20388;-77
2021/03/30 09:01:59;;;;;;;4.50;3.38;;;;;;;;;;5050592;28;20405;-72
2021/03/30 09:04:30;;;;;;;4.95;3.40;;;;;;;;;;5032235;28;20382;-75
2021/03/30 09:06:56;;;;;;;3.43;2.90;;;15.20;90.30;;;;;;5050830;28;20426;-73
2021/03/30 09:09:24;;;;;;;3.90;3.13;;;15.00;83.00;;;;;;5050497;28;20472;-73
2021/03/30 09:12:26;;;;;;;3.33;2.65;;;15.70;81.20;;;;;;5050142;28;20394;-72
2021/03/30 09:15:03;;;;;;;3.60;2.50;;;15.10;88.50;;;;;;5044976;28;20447;-72
2021/03/30 09:17:29;;;;;;;3.25;2.60;;;15.70;77.20;;;;;;5049515;28;20428;-73
2021/03/30 09:20:03;;;;;;;4.32;2.60;;;;;;;;;;5032203;28;20413;-73
2021/03/30 09:22:39;;;;;;;3.20;2.70;;;;;;;;;;5031868;28;20730;-75
2021/03/30 09:27:45;;;;;;;4.82;2.55;;;15.60;83.80;;;;;;5049599;28;20761;-72
2021/03/30 09:30:15;;;;;;;3.05;2.30;;;;;;;;;;5049851;28;20447;-72
2021/03/30 09:32:42;;;;;;;3.80;2.90;;;;;;;;;;5049420;28;20377;-72
2021/03/30 09:35:08;;;;;;;3.00;2.50;;;15.80;76.20;;;;;;5032085;28;20378;-72
2021/03/30 09:37:40;;;;;;;2.40;2.20;;;16.30;74.00;;;;;;5049489;28;20389;-73
2021/03/30 09:40:09;;;;;;;3.05;2.40;;;16.50;70.90;;;;;;5049778;28;20513;-73
2021/03/30 09:42:35;;;;;;;2.90;2.40;;;;;;;;;;5031202;28;20409;-74
2021/03/30 09:45:02;;;;;;;3.92;2.75;;;16.40;73.60;;;;;;5032759;28;20729;-74
2021/03/30 09:47:29;;;;;;;3.53;2.67;;;16.30;68.80;;;;;;5049911;28;20738;-77
2021/03/30 09:49:56;;;;;;;3.00;2.70;;;;;;;;;;5032088;28;20876;-75
2021/03/30 09:52:22;;;;;;;2.55;2.35;;;17.00;73.20;;;;;;5042126;28;20383;-74
2021/03/30 09:54:48;;;;;;;3.20;2.90;;;16.70;68.60;;;;;;5029304;28;21060;-73
2021/03/30 09:57:22;;;;;;;2.90;2.60;;;16.70;72.40;;;;;;5030325;28;20376;-72
2021/03/30 09:59:49;;;;;;;5.15;2.88;;;;;;;;;;5029142;28;20990;-73
2021/03/30 10:02:19;;;;;;;3.95;2.80;;;;;;;;;;5031583;28;20407;-73
2021/03/30 10:04:52;;;;;;;3.42;2.70;;;17.20;78.70;;;;;;5033188;28;20466;-74
2021/03/30 10:07:18;;;;;;;4.88;2.83;;;;;;;;;;5034359;28;20569;-74
2021/03/30 10:09:59;;;;;;;3.90;3.00;;;17.20;74.30;;;;;;5032698;28;20449;-73
2021/03/30 10:12:29;;;;;;;3.20;2.60;;;16.90;65.70;;;;;;5033620;28;20401;-74
2021/03/30 10:14:56;;;;;;;3.42;2.50;;;17.50;65.70;;;;;;5033293;28;20382;-74
2021/03/30 10:17:23;;;;;;;2.55;2.22;;;17.80;63.30;;;;;;5036121;28;20401;-74
2021/03/30 10:19:53;;;;;;;3.85;2.60;;;17.80;66.30;;;;;;5032320;28;21093;-74
2021/03/30 10:22:33;;;;;;;3.38;2.58;;;17.20;69.00;;;;;;5033415;28;20418;-72
2021/03/30 10:25:20;;;;;;;3.35;2.50;;;17.90;64.10;;;;;;5015608;28;20399;-71
2021/03/30 10:27:52;;;;;;;6.15;2.55;;;17.40;69.40;;;;;;5014938;28;20810;-72
2021/03/30 10:30:27;;;;;;;3.70;2.40;;;17.60;63.00;;;;;;5033389;28;20395;-73
2021/03/30 10:32:54;;;;;;;2.38;2.08;;;;;;;;;;5034113;28;20386;-74
2021/03/30 10:35:21;;;;;;;2.65;2.05;;;19.50;61.80;;;;;;5037519;28;20424;-76
2021/03/30 10:37:48;;;;;;;2.85;2.30;;;18.10;61.70;;;;;;5034455;28;20465;-74
2021/03/30 10:40:14;;;;;;;2.70;2.28;;;;;;;;;;5033126;28;20537;-75
2021/03/30 10:42:41;;;;;;;2.90;2.22;;;;;;;;;;5020812;28;20427;-74
2021/03/30 10:45:11;;;;;;;3.95;2.40;;;;;;;;;;5041012;28;20882;-75
2021/03/30 10:47:48;;;;;;;2.80;2.20;;;;;;;;;;5033202;28;20410;-73
2021/03/30 10:50:18;;;;;;;3.13;2.30;;;18.60;60.40;;;;;;5052694;28;20374;-74
2021/03/30 10:52:44;;;;;;;2.72;2.00;;;18.80;59.00;;;;;;5043521;28;20877;-75
2021/03/30 10:55:16;;;;;;;3.92;2.13;;;;;;;;;;5038559;28;20385;-75
2021/03/30 10:57:45;;;;;;;4.28;2.30;;;;;;;;;;5039260;28;20879;-75
2021/03/30 11:00:12;;;;;;;2.50;2.25;;;18.80;59.10;;;;;;5036364;28;20468;-75
2021/03/30 11:02:38;;;;;;;3.80;2.33;;;19.20;58.00;;;;;;5035093;28;20411;-77
2021/03/30 11:05:05;;;;;;;2.17;1.60;;;19.30;56.20;;;;;;5035969;28;20386;-75
2021/03/30 11:07:31;;;;;;;3.35;2.25;;;;;;;;;;5043445;28;20412;-77
2021/03/30 11:09:58;;;;;;;2.22;2.03;;;;;;;;;;5035381;28;20375;-75
2021/03/30 11:12:24;;;;;;;2.80;2.00;;;;;;;;;;5042801;28;20405;-76
2021/03/30 11:14:50;;;;;;;2.40;2.20;;;20.20;57.80;;;;;;5040970;28;20377;-75
2021/03/30 11:17:15;;;;;;;2.17;1.85;;;20.40;61.70;;;;;;5035359;28;20456;-71
2021/03/30 11:19:41;;;;;;;2.92;1.90;;;;;;;;;;5042612;28;20739;-72
2021/03/30 11:22:08;;;;;;;2.65;1.70;;;20.10;57.70;;;;;;5034879;28;20397;-71
2021/03/30 11:24:40;;;;;;;5.60;2.33;;;20.20;56.90;;;;;;5034169;28;20478;-74
2021/03/30 11:27:06;;;;;;;3.60;2.17;;;;;;;;;;5039264;28;20799;-72
2021/03/30 11:35:09;;;;;;;2.40;2.20;;;;;;;;;;5040126;28;20465;-69
2021/03/30 11:39:57;;;;;;;2.00;1.73;;;23.20;63.30;;;;;;5040706;28;20443;-69
2021/03/30 11:42:23;;;;;;;3.10;1.80;;;23.10;53.20;;;;;;5040042;28;20824;-69
2021/03/30 11:44:49;;;;;;;2.95;1.88;;;23.30;51.60;;;;;;5019122;28;20405;-69
2021/03/30 11:47:15;;;;;;;2.20;1.73;;;24.10;56.00;;;;;;5047449;28;20396;-68
2021/03/30 11:49:41;;;;;;;1.60;1.50;;;24.40;55.90;;;;;;5036119;28;20395;-68
2021/03/30 11:52:08;;;;;;;3.17;1.70;;;24.70;56.40;;;;;;5038830;28;20999;-69
2021/03/30 11:54:34;;;;;;;1.50;1.30;;;;;;;;;;5038102;28;20383;-74
2021/03/30 11:57:00;;;;;;;1.60;1.48;;;25.20;52.50;;;;;;5029222;28;20393;-68
2021/03/30 11:59:26;;;;;;;1.85;1.60;;;24.00;55.40;;;;;;5031736;28;20541;-68
2021/03/30 12:01:52;;;;;;;3.95;1.50;;;24.70;62.60;;;;;;5015167;28;20395;-67
2021/03/30 12:04:18;;;;;;;1.60;1.27;;;24.50;55.70;;;;;;5041347;28;20401;-68
2021/03/30 12:06:44;;;;;;;1.80;1.50;;;24.40;55.90;;;;;;5036840;28;20759;-69
2021/03/30 12:09:10;;;;;;;2.63;1.80;;;24.00;55.60;;;;;;5039274;28;20393;-69
2021/03/30 12:11:36;;;;;;;2.28;1.48;;;25.80;56.10;;;;;;5038144;28;20964;-68
2021/03/30 12:14:02;;;;;;;1.88;1.70;;;25.70;55.00;;;;;;5038433;28;20378;-69
2021/03/30 12:16:29;;;;;;;2.47;1.60;;;24.70;54.90;;;;;;5043724;28;20387;-77
2021/03/30 12:18:55;;;;;;;1.30;1.20;;;24.90;55.50;;;;;;5036853;28;20798;-71
2021/03/30 12:21:22;;;;;;;1.70;1.17;;;25.90;52.30;;;;;;5035042;28;20387;-70
2021/03/30 12:23:48;;;;;;;1.50;1.30;;;26.60;54.00;;;;;;5029569;28;20426;-70
2021/03/30 12:26:14;;;;;;;2.20;1.50;;;25.80;53.40;;;;;;5040918;28;20721;-71
2021/03/30 12:28:41;;;;;;;1.90;1.50;;;26.20;53.20;;;;;;5027801;28;20391;-75
2021/03/30 12:31:07;;;;;;;1.58;1.40;;;26.40;51.30;;;;;;5038121;28;20374;-70
2021/03/30 12:33:33;;;;;;;3.53;1.80;;;26.40;48.90;;;;;;5043357;28;20397;-70
2021/03/30 12:35:58;;;;;;;2.00;1.55;;;26.20;51.10;;;;;;5030332;28;20464;-70
2021/03/30 12:38:24;;;;;;;3.40;1.88;;;26.00;52.90;;;;;;5041431;28;20435;-70
2021/03/30 12:40:50;;;;;;;2.50;1.65;;;26.20;50.40;;;;;;5029366;28;20449;-71
2021/03/30 12:43:16;;;;;;;2.30;1.70;;;25.40;52.20;;;;;;5032993;28;20539;-69
2021/03/30 12:45:43;;;;;;;2.73;1.90;;;;;;;;;;5032998;28;20477;-71
2021/03/30 12:48:13;;;;;;;2.72;1.80;;;25.20;48.60;;;;;;5033130;28;20397;-70
2021/03/30 12:50:39;;;;;;;3.65;2.10;;;26.10;54.90;;;;;;5032493;28;20387;-73
2021/03/30 12:53:06;;;;;;;2.30;2.10;;;25.50;57.70;;;;;;5041114;28;20385;-70
2021/03/30 12:55:31;;;;;;;2.50;2.15;;;25.80;52.40;;;;;;5039198;28;20486;-70
2021/03/30 12:57:57;;;;;;;2.70;2.50;;;26.10;53.90;;;;;;5038039;28;20480;-70
2021/03/30 13:00:24;;;;;;;3.40;2.50;;;;;;;;;;5033959;28;20378;-71
2021/03/30 13:02:50;;;;;;;2.53;2.20;;;25.80;49.00;;;;;;5041320;28;20413;-70
2021/03/30 13:05:16;;;;;;;2.88;2.40;;;26.00;50.80;;;;;;5044575;28;20869;-70
2021/03/30 13:07:42;;;;;;;2.67;2.00;;;25.70;49.70;;;;;;5033247;28;20391;-71
2021/03/30 13:10:09;;;;;;;2.50;1.90;;;25.30;49.80;;;;;;5037527;28;20393;-70
2021/03/30 13:12:35;;;;;;;6.40;2.80;;;25.60;50.90;;;;;;5040525;28;20386;-74
2021/03/30 13:15:02;;;;;;;3.22;2.40;;;25.40;52.20;;;;;;5038230;28;20381;-70
2021/03/30 13:17:28;;;;;;;4.00;2.40;;;24.90;51.60;;;;;;5032666;28;20395;-70
2021/03/30 13:19:54;;;;;;;4.07;2.28;;;25.00;52.10;;;;;;5028234;28;20387;-69
2021/03/30 13:22:21;;;;;;;2.50;2.30;;;25.90;54.20;;;;;;5037609;28;20791;-75
2021/03/30 13:24:48;;;;;;;2.70;2.45;;;26.30;51.00;;;;;;5037563;28;20434;-71
2021/03/30 13:27:14;;;;;;;2.83;2.10;;;25.10;49.30;;;;;;5037347;28;20454;-70
2021/03/30 13:29:41;;;;;;;2.53;2.22;;;25.60;48.80;;;;;;5036445;28;20387;-72
2021/03/30 13:32:11;;;;;;;2.90;2.60;;;26.10;49.70;;;;;;5037306;28;20388;-71
2021/03/30 13:34:38;;;;;;;3.30;2.42;;;26.60;49.90;;;;;;5045003;28;20377;-71
2021/03/30 13:37:05;;;;;;;2.88;2.38;;;23.80;47.90;;;;;;5040376;28;20389;-72
2021/03/30 13:39:31;;;;;;;3.15;2.50;;;26.40;58.20;;;;;;5041250;28;20409;-71
2021/03/30 13:41:57;;;;;;;3.50;2.20;;;25.10;51.80;;;;;;5033492;28;20383;-75
2021/03/30 13:44:25;;;;;;;3.95;2.60;;;26.60;51.10;;;;;;5032010;28;20394;-72
2021/03/30 13:46:51;;;;;;;2.30;2.10;;;27.10;49.50;;;;;;5042255;28;20810;-71
2021/03/30 13:49:17;;;;;;;4.63;2.30;;;26.70;52.60;;;;;;5041332;28;20929;-71
2021/03/30 13:51:47;;;;;;;3.42;2.50;;;27.00;49.30;;;;;;5040322;28;20436;-71
2021/03/30 13:54:14;;;;;;;2.00;1.80;;;26.30;50.80;;;;;;5044959;28;20501;-71
2021/03/30 13:56:41;;;;;;;4.38;1.90;;;25.80;50.10;;;;;;5040506;28;20386;-78
2021/03/30 13:59:08;;;;;;;2.40;2.20;;;26.40;49.70;;;;;;5032756;28;20545;-71
2021/03/30 14:01:35;;;;;;;3.20;2.05;;;25.50;49.20;;;;;;5032905;28;20386;-71
2021/03/30 14:04:01;;;;;;;2.85;2.17;;;26.20;49.10;;;;;;5043419;28;20699;-72
2021/03/30 14:06:26;;;;;;;3.10;1.80;;;25.40;48.70;;;;;;5036672;28;20390;-70
2021/03/30 14:08:52;;;;;;;1.75;1.65;;;26.20;51.00;;;;;;5040396;28;21529;-72
2021/03/30 14:11:22;;;;;;;1.50;1.40;;;24.90;56.80;;;;;;5045108;28;20397;-71